Arnett, West Virginia
Current Conditions -  °F | °C
As of 11:21 AM on Thursday 30 Oct 2014 (Local Time) from KBKW Reporting Station
Overcast Overcast  
Wind Chill: 39°   Ceiling: 2900
Heat Index: 43°   Visibility: 10mi
Dew Point: 33°   Wind: 7mph
Humidity: 68%   Direction: 350°N
Pressure: 30.11"   Gusts: NA
Location:  37.83°N, 81.43°W
Report Text: KBKW 301521Z AUTO 35006KT 10SM FEW015 OVC029 06/01 A3011 RMK AO2 T00610006 TSNO
Loading
Personal Weather Stations






























Interactive Weather Map New forecast layout! Learn more

10-Day Weather Forecast

Advertisements
Track Severe Weather on mobile